sensor_id;sensor_type;location;lat;lon;timestamp;temperature;humidity
43772;HTU21D;59066;54.782;32.024;2023-09-07T00:02:11;10.84;73.77
43772;HTU21D;59066;54.782;32.024;2023-09-07T00:04:38;10.85;73.70
43772;HTU21D;59066;54.782;32.024;2023-09-07T00:07:06;10.81;74.02
43772;HTU21D;59066;54.782;32.024;2023-09-07T00:09:33;10.75;74.29
43772;HTU21D;59066;54.782;32.024;2023-09-07T00:12:01;10.79;74.31
43772;HTU21D;59066;54.782;32.024;2023-09-07T00:14:28;10.78;74.40
43772;HTU21D;59066;54.782;32.024;2023-09-07T00:16:55;10.72;74.79
43772;HTU21D;59066;54.782;32.024;2023-09-07T00:19:24;10.78;74.80
43772;HTU21D;59066;54.782;32.024;2023-09-07T00:21:51;10.75;74.68
43772;HTU21D;59066;54.782;32.024;2023-09-07T00:24:19;10.71;74.83
43772;HTU21D;59066;54.782;32.024;2023-09-07T00:26:46;10.72;74.89
43772;HTU21D;59066;54.782;32.024;2023-09-07T00:29:14;10.68;75.09
43772;HTU21D;59066;54.782;32.024;2023-09-07T00:31:41;10.70;75.05
43772;HTU21D;59066;54.782;32.024;2023-09-07T00:34:09;10.67;75.34
43772;HTU21D;59066;54.782;32.024;2023-09-07T00:36:36;10.72;75.36
43772;HTU21D;59066;54.782;32.024;2023-09-07T00:39:04;10.79;75.38
43772;HTU21D;59066;54.782;32.024;2023-09-07T00:41:32;10.67;75.63
43772;HTU21D;59066;54.782;32.024;2023-09-07T00:43:59;10.68;75.94
43772;HTU21D;59066;54.782;32.024;2023-09-07T00:46:27;10.67;75.74
43772;HTU21D;59066;54.782;32.024;2023-09-07T00:48:55;10.64;75.83
43772;HTU21D;59066;54.782;32.024;2023-09-07T00:51:23;10.58;76.14
43772;HTU21D;59066;54.782;32.024;2023-09-07T00:53:52;10.53;76.23
43772;HTU21D;59066;54.782;32.024;2023-09-07T00:56:20;10.51;76.39
43772;HTU21D;59066;54.782;32.024;2023-09-07T00:58:48;10.48;76.69
43772;HTU21D;59066;54.782;32.024;2023-09-07T01:01:16;10.53;76.53
43772;HTU21D;59066;54.782;32.024;2023-09-07T01:03:44;10.62;76.53
43772;HTU21D;59066;54.782;32.024;2023-09-07T01:06:20;10.57;76.41
43772;HTU21D;59066;54.782;32.024;2023-09-07T01:08:51;10.77;76.79
43772;HTU21D;59066;54.782;32.024;2023-09-07T01:11:24;10.80;76.32
43772;HTU21D;59066;54.782;32.024;2023-09-07T01:13:51;10.87;76.38
43772;HTU21D;59066;54.782;32.024;2023-09-07T01:16:21;11.03;76.18
43772;HTU21D;59066;54.782;32.024;2023-09-07T01:18:52;11.19;75.82
43772;HTU21D;59066;54.782;32.024;2023-09-07T01:21:20;11.10;75.34
43772;HTU21D;59066;54.782;32.024;2023-09-07T01:23:49;10.88;75.73
43772;HTU21D;59066;54.782;32.024;2023-09-07T01:26:17;10.82;76.96
43772;HTU21D;59066;54.782;32.024;2023-09-07T01:28:47;10.90;76.89
43772;HTU21D;59066;54.782;32.024;2023-09-07T01:31:16;11.04;76.72
43772;HTU21D;59066;54.782;32.024;2023-09-07T01:33:43;11.13;76.15
43772;HTU21D;59066;54.782;32.024;2023-09-07T01:36:11;11.08;75.90
43772;HTU21D;59066;54.782;32.024;2023-09-07T01:38:39;11.12;75.89
43772;HTU21D;59066;54.782;32.024;2023-09-07T01:41:06;10.94;75.78
43772;HTU21D;59066;54.782;32.024;2023-09-07T01:43:35;10.74;76.41
43772;HTU21D;59066;54.782;32.024;2023-09-07T01:46:03;10.58;76.76
43772;HTU21D;59066;54.782;32.024;2023-09-07T01:48:30;10.49;77.05
43772;HTU21D;59066;54.782;32.024;2023-09-07T01:50:58;10.57;77.25
43772;HTU21D;59066;54.782;32.024;2023-09-07T01:53:25;10.48;76.93
43772;HTU21D;59066;54.782;32.024;2023-09-07T01:55:56;10.38;77.34
43772;HTU21D;59066;54.782;32.024;2023-09-07T01:58:23;10.33;77.43
43772;HTU21D;59066;54.782;32.024;2023-09-07T02:01:00;10.25;77.64
43772;HTU21D;59066;54.782;32.024;2023-09-07T02:03:27;10.16;77.98
43772;HTU21D;59066;54.782;32.024;2023-09-07T02:05:55;10.11;77.82
43772;HTU21D;59066;54.782;32.024;2023-09-07T02:08:22;9.98;77.89
43772;HTU21D;59066;54.782;32.024;2023-09-07T02:10:50;9.86;78.01
43772;HTU21D;59066;54.782;32.024;2023-09-07T02:13:17;9.79;78.79
43772;HTU21D;59066;54.782;32.024;2023-09-07T02:15:45;9.71;78.81
43772;HTU21D;59066;54.782;32.024;2023-09-07T02:18:12;9.72;79.39
43772;HTU21D;59066;54.782;32.024;2023-09-07T02:20:39;9.70;79.13
43772;HTU21D;59066;54.782;32.024;2023-09-07T02:23:07;9.65;79.30
43772;HTU21D;59066;54.782;32.024;2023-09-07T02:25:34;9.60;79.36
43772;HTU21D;59066;54.782;32.024;2023-09-07T02:28:02;9.57;79.42
43772;HTU21D;59066;54.782;32.024;2023-09-07T02:30:30;9.52;79.57
43772;HTU21D;59066;54.782;32.024;2023-09-07T02:32:58;9.53;79.53
43772;HTU21D;59066;54.782;32.024;2023-09-07T02:35:27;9.51;79.46
43772;HTU21D;59066;54.782;32.024;2023-09-07T02:37:54;9.47;79.60
43772;HTU21D;59066;54.782;32.024;2023-09-07T02:40:21;9.48;79.78
43772;HTU21D;59066;54.782;32.024;2023-09-07T02:42:49;9.40;80.01
43772;HTU21D;59066;54.782;32.024;2023-09-07T02:45:17;9.36;80.18
43772;HTU21D;59066;54.782;32.024;2023-09-07T02:47:45;9.33;80.14
43772;HTU21D;59066;54.782;32.024;2023-09-07T02:50:13;9.26;80.43
43772;HTU21D;59066;54.782;32.024;2023-09-07T02:52:43;9.34;80.31
43772;HTU21D;59066;54.782;32.024;2023-09-07T02:55:10;9.31;80.81
43772;HTU21D;59066;54.782;32.024;2023-09-07T02:57:38;9.25;80.61
43772;HTU21D;59066;54.782;32.024;2023-09-07T03:00:06;9.27;81.04
43772;HTU21D;59066;54.782;32.024;2023-09-07T03:02:36;9.24;80.81
43772;HTU21D;59066;54.782;32.024;2023-09-07T03:05:04;9.20;80.78
43772;HTU21D;59066;54.782;32.024;2023-09-07T03:07:33;9.17;81.36
43772;HTU21D;59066;54.782;32.024;2023-09-07T03:10:01;9.10;81.28
43772;HTU21D;59066;54.782;32.024;2023-09-07T03:12:28;9.09;81.32
43772;HTU21D;59066;54.782;32.024;2023-09-07T03:14:56;9.10;81.52
43772;HTU21D;59066;54.782;32.024;2023-09-07T03:17:24;9.12;81.30
43772;HTU21D;59066;54.782;32.024;2023-09-07T03:19:51;9.16;81.45
43772;HTU21D;59066;54.782;32.024;2023-09-07T03:22:19;9.18;81.37
43772;HTU21D;59066;54.782;32.024;2023-09-07T03:24:49;9.17;81.40
43772;HTU21D;59066;54.782;32.024;2023-09-07T03:27:17;9.14;81.50
43772;HTU21D;59066;54.782;32.024;2023-09-07T03:29:45;9.09;81.69
43772;HTU21D;59066;54.782;32.024;2023-09-07T03:32:15;9.15;81.93
43772;HTU21D;59066;54.782;32.024;2023-09-07T03:34:43;9.14;82.09
43772;HTU21D;59066;54.782;32.024;2023-09-07T03:37:11;9.18;82.00
43772;HTU21D;59066;54.782;32.024;2023-09-07T03:39:39;9.17;81.94
43772;HTU21D;59066;54.782;32.024;2023-09-07T03:42:06;9.15;81.93
43772;HTU21D;59066;54.782;32.024;2023-09-07T03:44:34;9.14;81.78
43772;HTU21D;59066;54.782;32.024;2023-09-07T03:47:01;9.08;82.03
43772;HTU21D;59066;54.782;32.024;2023-09-07T03:49:29;9.10;82.35
43772;HTU21D;59066;54.782;32.024;2023-09-07T03:51:56;9.20;82.20
43772;HTU21D;59066;54.782;32.024;2023-09-07T03:54:24;9.12;82.29
43772;HTU21D;59066;54.782;32.024;2023-09-07T03:56:51;9.14;82.09
43772;HTU21D;59066;54.782;32.024;2023-09-07T03:59:19;9.17;82.32
43772;HTU21D;59066;54.782;32.024;2023-09-07T04:01:46;9.23;82.02
43772;HTU21D;59066;54.782;32.024;2023-09-07T04:04:14;9.29;82.36
43772;HTU21D;59066;54.782;32.024;2023-09-07T04:06:46;9.25;82.17
43772;HTU21D;59066;54.782;32.024;2023-09-07T04:09:15;9.27;82.74
43772;HTU21D;59066;54.782;32.024;2023-09-07T04:11:43;9.45;82.33
43772;HTU21D;59066;54.782;32.024;2023-09-07T04:14:10;9.57;82.55
43772;HTU21D;59066;54.782;32.024;2023-09-07T04:16:38;9.55;81.61
43772;HTU21D;59066;54.782;32.024;2023-09-07T04:19:08;9.53;81.78
43772;HTU21D;59066;54.782;32.024;2023-09-07T04:21:36;9.56;82.23
43772;HTU21D;59066;54.782;32.024;2023-09-07T04:24:05;9.60;81.50
43772;HTU21D;59066;54.782;32.024;2023-09-07T04:26:34;9.59;82.19
43772;HTU21D;59066;54.782;32.024;2023-09-07T04:29:01;9.74;81.68
43772;HTU21D;59066;54.782;32.024;2023-09-07T04:31:29;9.85;81.90
43772;HTU21D;59066;54.782;32.024;2023-09-07T04:33:57;10.03;81.22
43772;HTU21D;59066;54.782;32.024;2023-09-07T04:36:24;10.13;80.70
43772;HTU21D;59066;54.782;32.024;2023-09-07T04:38:52;10.27;80.52
43772;HTU21D;59066;54.782;32.024;2023-09-07T04:41:19;10.28;80.33
43772;HTU21D;59066;54.782;32.024;2023-09-07T04:43:47;10.33;80.32
43772;HTU21D;59066;54.782;32.024;2023-09-07T04:46:14;10.40;80.35
43772;HTU21D;59066;54.782;32.024;2023-09-07T04:48:42;10.52;80.47
43772;HTU21D;59066;54.782;32.024;2023-09-07T04:51:13;10.63;80.22
43772;HTU21D;59066;54.782;32.024;2023-09-07T04:53:40;10.63;79.95
43772;HTU21D;59066;54.782;32.024;2023-09-07T04:56:10;10.63;79.88
43772;HTU21D;59066;54.782;32.024;2023-09-07T04:58:38;10.65;79.97
43772;HTU21D;59066;54.782;32.024;2023-09-07T05:01:08;10.59;79.89
43772;HTU21D;59066;54.782;32.024;2023-09-07T05:03:37;10.58;80.22
43772;HTU21D;59066;54.782;32.024;2023-09-07T05:06:04;10.67;80.03
43772;HTU21D;59066;54.782;32.024;2023-09-07T05:08:32;10.72;79.62
43772;HTU21D;59066;54.782;32.024;2023-09-07T05:11:05;10.68;79.74
43772;HTU21D;59066;54.782;32.024;2023-09-07T05:13:33;10.62;79.72
43772;HTU21D;59066;54.782;32.024;2023-09-07T05:16:02;10.65;79.98
43772;HTU21D;59066;54.782;32.024;2023-09-07T05:18:33;10.78;79.62
43772;HTU21D;59066;54.782;32.024;2023-09-07T05:21:14;10.87;79.81
43772;HTU21D;59066;54.782;32.024;2023-09-07T05:23:42;10.86;79.21
43772;HTU21D;59066;54.782;32.024;2023-09-07T05:26:10;10.89;79.22
43772;HTU21D;59066;54.782;32.024;2023-09-07T05:28:40;10.96;79.50
43772;HTU21D;59066;54.782;32.024;2023-09-07T05:31:09;11.05;79.32
43772;HTU21D;59066;54.782;32.024;2023-09-07T05:33:37;11.15;79.06
43772;HTU21D;59066;54.782;32.024;2023-09-07T05:36:05;11.20;78.85
43772;HTU21D;59066;54.782;32.024;2023-09-07T05:38:33;11.25;78.68
43772;HTU21D;59066;54.782;32.024;2023-09-07T05:41:00;11.27;78.66
43772;HTU21D;59066;54.782;32.024;2023-09-07T05:43:28;11.33;78.63
43772;HTU21D;59066;54.782;32.024;2023-09-07T05:45:56;11.39;78.53
43772;HTU21D;59066;54.782;32.024;2023-09-07T05:48:23;11.51;78.40
43772;HTU21D;59066;54.782;32.024;2023-09-07T05:50:50;11.46;78.32
43772;HTU21D;59066;54.782;32.024;2023-09-07T05:53:19;11.52;78.43
43772;HTU21D;59066;54.782;32.024;2023-09-07T05:55:52;11.55;78.38
43772;HTU21D;59066;54.782;32.024;2023-09-07T05:58:19;11.66;78.30
43772;HTU21D;59066;54.782;32.024;2023-09-07T06:00:47;11.73;78.17
43772;HTU21D;59066;54.782;32.024;2023-09-07T06:03:15;11.74;77.98
43772;HTU21D;59066;54.782;32.024;2023-09-07T06:05:42;11.79;78.01
43772;HTU21D;59066;54.782;32.024;2023-09-07T06:08:12;11.84;78.10
43772;HTU21D;59066;54.782;32.024;2023-09-07T06:10:39;11.91;78.02
43772;HTU21D;59066;54.782;32.024;2023-09-07T06:13:07;11.94;78.08
43772;HTU21D;59066;54.782;32.024;2023-09-07T06:15:35;12.03;78.07
43772;HTU21D;59066;54.782;32.024;2023-09-07T06:18:03;12.15;77.92
43772;HTU21D;59066;54.782;32.024;2023-09-07T06:20:31;12.23;77.66
43772;HTU21D;59066;54.782;32.024;2023-09-07T06:23:00;12.27;77.77
43772;HTU21D;59066;54.782;32.024;2023-09-07T06:25:28;12.37;77.62
43772;HTU21D;59066;54.782;32.024;2023-09-07T06:27:56;12.38;77.77
43772;HTU21D;59066;54.782;32.024;2023-09-07T06:30:23;12.45;77.53
43772;HTU21D;59066;54.782;32.024;2023-09-07T06:32:51;12.50;77.61
43772;HTU21D;59066;54.782;32.024;2023-09-07T06:35:20;12.53;77.64
43772;HTU21D;59066;54.782;32.024;2023-09-07T06:37:48;12.60;77.73
43772;HTU21D;59066;54.782;32.024;2023-09-07T06:40:19;12.72;77.47
43772;HTU21D;59066;54.782;32.024;2023-09-07T06:42:51;12.76;77.35
43772;HTU21D;59066;54.782;32.024;2023-09-07T06:45:20;12.81;77.48
43772;HTU21D;59066;54.782;32.024;2023-09-07T06:47:51;12.90;77.21
43772;HTU21D;59066;54.782;32.024;2023-09-07T06:50:22;13.02;77.10
43772;HTU21D;59066;54.782;32.024;2023-09-07T06:52:50;13.16;76.67
43772;HTU21D;59066;54.782;32.024;2023-09-07T06:55:19;13.25;76.53
43772;HTU21D;59066;54.782;32.024;2023-09-07T06:57:47;13.36;76.45
43772;HTU21D;59066;54.782;32.024;2023-09-07T07:00:15;13.49;76.12
43772;HTU21D;59066;54.782;32.024;2023-09-07T07:02:43;13.59;76.12
43772;HTU21D;59066;54.782;32.024;2023-09-07T07:05:13;13.68;75.77
43772;HTU21D;59066;54.782;32.024;2023-09-07T07:07:42;13.76;75.50
43772;HTU21D;59066;54.782;32.024;2023-09-07T07:10:09;13.79;74.91
43772;HTU21D;59066;54.782;32.024;2023-09-07T07:12:39;13.92;74.73
43772;HTU21D;59066;54.782;32.024;2023-09-07T07:15:07;14.04;74.12
43772;HTU21D;59066;54.782;32.024;2023-09-07T07:17:35;14.08;73.41
43772;HTU21D;59066;54.782;32.024;2023-09-07T07:20:03;14.13;72.71
43772;HTU21D;59066;54.782;32.024;2023-09-07T07:22:31;14.21;72.48
43772;HTU21D;59066;54.782;32.024;2023-09-07T07:25:04;14.34;71.99
43772;HTU21D;59066;54.782;32.024;2023-09-07T07:27:33;14.38;71.60
43772;HTU21D;59066;54.782;32.024;2023-09-07T07:30:01;14.45;71.30
43772;HTU21D;59066;54.782;32.024;2023-09-07T07:32:29;14.53;70.74
43772;HTU21D;59066;54.782;32.024;2023-09-07T07:34:56;14.57;70.32
43772;HTU21D;59066;54.782;32.024;2023-09-07T07:37:25;14.60;69.81
43772;HTU21D;59066;54.782;32.024;2023-09-07T07:39:52;14.64;69.49
43772;HTU21D;59066;54.782;32.024;2023-09-07T07:42:20;14.67;69.46
43772;HTU21D;59066;54.782;32.024;2023-09-07T07:44:48;14.77;69.20
43772;HTU21D;59066;54.782;32.024;2023-09-07T07:47:16;14.82;68.89
43772;HTU21D;59066;54.782;32.024;2023-09-07T07:49:44;14.89;68.83
43772;HTU21D;59066;54.782;32.024;2023-09-07T07:52:11;15.01;68.49
43772;HTU21D;59066;54.782;32.024;2023-09-07T07:54:38;15.11;68.13
43772;HTU21D;59066;54.782;32.024;2023-09-07T07:57:06;15.17;67.78
43772;HTU21D;59066;54.782;32.024;2023-09-07T07:59:34;15.29;67.36
43772;HTU21D;59066;54.782;32.024;2023-09-07T08:02:01;15.38;67.15
43772;HTU21D;59066;54.782;32.024;2023-09-07T08:04:30;15.39;66.62
43772;HTU21D;59066;54.782;32.024;2023-09-07T08:06:59;15.52;66.36
43772;HTU21D;59066;54.782;32.024;2023-09-07T08:09:32;15.61;65.86
43772;HTU21D;59066;54.782;32.024;2023-09-07T08:12:00;15.62;65.01
43772;HTU21D;59066;54.782;32.024;2023-09-07T08:14:33;15.68;64.43
43772;HTU21D;59066;54.782;32.024;2023-09-07T08:17:02;15.66;63.77
43772;HTU21D;59066;54.782;32.024;2023-09-07T08:19:30;15.75;63.27
43772;HTU21D;59066;54.782;32.024;2023-09-07T08:21:59;15.81;62.70
43772;HTU21D;59066;54.782;32.024;2023-09-07T08:24:32;15.87;61.95
43772;HTU21D;59066;54.782;32.024;2023-09-07T08:27:00;15.99;61.38
43772;HTU21D;59066;54.782;32.024;2023-09-07T08:29:29;16.01;60.55
43772;HTU21D;59066;54.782;32.024;2023-09-07T08:31:59;16.10;60.31
43772;HTU21D;59066;54.782;32.024;2023-09-07T08:34:28;16.22;59.70
43772;HTU21D;59066;54.782;32.024;2023-09-07T08:36:56;16.24;59.09
43772;HTU21D;59066;54.782;32.024;2023-09-07T08:39:28;16.30;58.43
43772;HTU21D;59066;54.782;32.024;2023-09-07T08:41:56;16.39;58.16
43772;HTU21D;59066;54.782;32.024;2023-09-07T08:44:29;16.44;57.40
43772;HTU21D;59066;54.782;32.024;2023-09-07T08:46:57;16.54;57.00
43772;HTU21D;59066;54.782;32.024;2023-09-07T08:49:27;16.62;56.36
43772;HTU21D;59066;54.782;32.024;2023-09-07T08:51:58;16.69;55.40
43772;HTU21D;59066;54.782;32.024;2023-09-07T08:54:26;16.67;55.48
43772;HTU21D;59066;54.782;32.024;2023-09-07T08:56:53;16.76;55.10
43772;HTU21D;59066;54.782;32.024;2023-09-07T08:59:24;16.85;54.91
43772;HTU21D;59066;54.782;32.024;2023-09-07T09:01:56;16.90;54.00
43772;HTU21D;59066;54.782;32.024;2023-09-07T09:04:25;16.92;54.14
43772;HTU21D;59066;54.782;32.024;2023-09-07T09:06:53;16.93;53.96
43772;HTU21D;59066;54.782;32.024;2023-09-07T09:09:24;16.90;53.22
43772;HTU21D;59066;54.782;32.024;2023-09-07T09:11:51;16.95;53.54
43772;HTU21D;59066;54.782;32.024;2023-09-07T09:14:19;17.08;53.36
43772;HTU21D;59066;54.782;32.024;2023-09-07T09:16:49;17.18;52.98
43772;HTU21D;59066;54.782;32.024;2023-09-07T09:19:33;17.21;52.14
43772;HTU21D;59066;54.782;32.024;2023-09-07T09:22:01;17.30;52.46
43772;HTU21D;59066;54.782;32.024;2023-09-07T09:24:34;17.41;51.99
43772;HTU21D;59066;54.782;32.024;2023-09-07T09:27:03;17.49;51.63
43772;HTU21D;59066;54.782;32.024;2023-09-07T09:29:35;17.55;51.15
43772;HTU21D;59066;54.782;32.024;2023-09-07T09:32:07;17.58;50.63
43772;HTU21D;59066;54.782;32.024;2023-09-07T09:34:37;17.61;50.58
43772;HTU21D;59066;54.782;32.024;2023-09-07T09:37:13;17.69;50.09
43772;HTU21D;59066;54.782;32.024;2023-09-07T09:39:42;17.78;50.30
43772;HTU21D;59066;54.782;32.024;2023-09-07T09:42:10;17.77;50.03
43772;HTU21D;59066;54.782;32.024;2023-09-07T09:44:40;17.90;49.45
43772;HTU21D;59066;54.782;32.024;2023-09-07T09:47:08;18.07;49.11
43772;HTU21D;59066;54.782;32.024;2023-09-07T09:49:37;18.22;48.94
43772;HTU21D;59066;54.782;32.024;2023-09-07T09:52:05;18.26;48.81
43772;HTU21D;59066;54.782;32.024;2023-09-07T09:54:35;18.41;48.41
43772;HTU21D;59066;54.782;32.024;2023-09-07T09:57:03;18.65;48.21
43772;HTU21D;59066;54.782;32.024;2023-09-07T09:59:32;18.86;47.53
43772;HTU21D;59066;54.782;32.024;2023-09-07T10:02:01;18.92;47.41
43772;HTU21D;59066;54.782;32.024;2023-09-07T10:04:30;18.88;47.35
43772;HTU21D;59066;54.782;32.024;2023-09-07T10:07:00;19.01;47.08
43772;HTU21D;59066;54.782;32.024;2023-09-07T10:09:35;19.59;46.76
43772;HTU21D;59066;54.782;32.024;2023-09-07T10:12:04;20.32;48.41
43772;HTU21D;59066;54.782;32.024;2023-09-07T10:14:39;21.38;46.72
43772;HTU21D;59066;54.782;32.024;2023-09-07T10:17:09;22.52;46.25
43772;HTU21D;59066;54.782;32.024;2023-09-07T10:19:37;23.49;45.99
43772;HTU21D;59066;54.782;32.024;2023-09-07T10:22:07;23.76;43.53
43772;HTU21D;59066;54.782;32.024;2023-09-07T10:24:34;23.73;41.07
43772;HTU21D;59066;54.782;32.024;2023-09-07T10:27:08;23.74;39.78
43772;HTU21D;59066;54.782;32.024;2023-09-07T10:29:45;24.21;36.97
43772;HTU21D;59066;54.782;32.024;2023-09-07T10:32:13;25.09;37.88
43772;HTU21D;59066;54.782;32.024;2023-09-07T10:34:45;25.63;36.59
43772;HTU21D;59066;54.782;32.024;2023-09-07T10:37:14;26.19;35.12
43772;HTU21D;59066;54.782;32.024;2023-09-07T10:39:43;26.17;33.47
43772;HTU21D;59066;54.782;32.024;2023-09-07T10:42:24;26.23;30.68
43772;HTU21D;59066;54.782;32.024;2023-09-07T10:44:52;26.15;31.80
43772;HTU21D;59066;54.782;32.024;2023-09-07T10:47:20;26.58;31.23
43772;HTU21D;59066;54.782;32.024;2023-09-07T10:49:49;26.83;30.96
43772;HTU21D;59066;54.782;32.024;2023-09-07T10:52:16;27.55;30.02
43772;HTU21D;59066;54.782;32.024;2023-09-07T10:54:44;27.74;29.68
43772;HTU21D;59066;54.782;32.024;2023-09-07T10:57:12;28.25;28.91
43772;HTU21D;59066;54.782;32.024;2023-09-07T10:59:45;28.82;28.23
43772;HTU21D;59066;54.782;32.024;2023-09-07T11:02:14;29.18;27.65
43772;HTU21D;59066;54.782;32.024;2023-09-07T11:04:43;29.57;26.58
43772;HTU21D;59066;54.782;32.024;2023-09-07T11:07:11;29.96;25.65
43772;HTU21D;59066;54.782;32.024;2023-09-07T11:09:43;30.30;23.98
43772;HTU21D;59066;54.782;32.024;2023-09-07T11:12:14;30.64;23.03
43772;HTU21D;59066;54.782;32.024;2023-09-07T11:14:48;30.93;23.54
43772;HTU21D;59066;54.782;32.024;2023-09-07T11:17:16;31.26;22.79
43772;HTU21D;59066;54.782;32.024;2023-09-07T11:19:43;31.52;22.05
43772;HTU21D;59066;54.782;32.024;2023-09-07T11:22:11;31.90;21.23
43772;HTU21D;59066;54.782;32.024;2023-09-07T11:24:39;32.30;20.47
43772;HTU21D;59066;54.782;32.024;2023-09-07T11:27:08;32.05;20.16
43772;HTU21D;59066;54.782;32.024;2023-09-07T11:29:36;32.42;19.98
43772;HTU21D;59066;54.782;32.024;2023-09-07T11:32:08;32.27;18.98
43772;HTU21D;59066;54.782;32.024;2023-09-07T11:34:47;32.32;18.73
43772;HTU21D;59066;54.782;32.024;2023-09-07T11:37:16;32.56;19.19
43772;HTU21D;59066;54.782;32.024;2023-09-07T11:39:44;32.60;18.73
43772;HTU21D;59066;54.782;32.024;2023-09-07T11:42:11;32.79;18.28
43772;HTU21D;59066;54.782;32.024;2023-09-07T11:44:39;33.03;17.80
43772;HTU21D;59066;54.782;32.024;2023-09-07T11:47:06;33.11;17.62
43772;HTU21D;59066;54.782;32.024;2023-09-07T11:49:36;33.34;16.87
43772;HTU21D;59066;54.782;32.024;2023-09-07T11:52:04;33.57;17.03
43772;HTU21D;59066;54.782;32.024;2023-09-07T11:54:31;33.50;17.17
43772;HTU21D;59066;54.782;32.024;2023-09-07T11:56:59;33.63;17.12
43772;HTU21D;59066;54.782;32.024;2023-09-07T11:59:26;33.49;17.19
43772;HTU21D;59066;54.782;32.024;2023-09-07T12:01:59;33.35;17.12
43772;HTU21D;59066;54.782;32.024;2023-09-07T12:04:27;32.83;16.89
43772;HTU21D;59066;54.782;32.024;2023-09-07T12:06:54;32.32;16.91
43772;HTU21D;59066;54.782;32.024;2023-09-07T12:09:22;32.69;16.91
43772;HTU21D;59066;54.782;32.024;2023-09-07T12:11:49;32.92;16.59
43772;HTU21D;59066;54.782;32.024;2023-09-07T12:14:17;33.51;16.35
43772;HTU21D;59066;54.782;32.024;2023-09-07T12:16:45;33.71;16.16
43772;HTU21D;59066;54.782;32.024;2023-09-07T12:19:12;33.99;16.14
43772;HTU21D;59066;54.782;32.024;2023-09-07T12:21:39;34.22;15.99
43772;HTU21D;59066;54.782;32.024;2023-09-07T12:24:09;34.18;16.16
43772;HTU21D;59066;54.782;32.024;2023-09-07T12:26:37;34.40;15.64
43772;HTU21D;59066;54.782;32.024;2023-09-07T12:29:04;34.48;15.37
43772;HTU21D;59066;54.782;32.024;2023-09-07T12:31:32;34.26;15.58
43772;HTU21D;59066;54.782;32.024;2023-09-07T12:33:59;34.15;15.71
43772;HTU21D;59066;54.782;32.024;2023-09-07T12:36:27;34.26;15.54
43772;HTU21D;59066;54.782;32.024;2023-09-07T12:38:57;34.33;15.32
43772;HTU21D;59066;54.782;32.024;2023-09-07T12:41:29;34.21;15.03
43772;HTU21D;59066;54.782;32.024;2023-09-07T12:43:57;34.08;15.12
43772;HTU21D;59066;54.782;32.024;2023-09-07T12:46:25;33.70;15.37
43772;HTU21D;59066;54.782;32.024;2023-09-07T12:48:52;33.65;15.15
43772;HTU21D;59066;54.782;32.024;2023-09-07T12:51:20;33.36;15.40
43772;HTU21D;59066;54.782;32.024;2023-09-07T12:53:47;33.44;15.43
43772;HTU21D;59066;54.782;32.024;2023-09-07T12:56:15;33.87;15.19
43772;HTU21D;59066;54.782;32.024;2023-09-07T12:58:43;34.04;15.20
43772;HTU21D;59066;54.782;32.024;2023-09-07T13:01:10;34.02;15.40
43772;HTU21D;59066;54.782;32.024;2023-09-07T13:03:38;33.91;15.56
43772;HTU21D;59066;54.782;32.024;2023-09-07T13:06:06;34.09;15.65
43772;HTU21D;59066;54.782;32.024;2023-09-07T13:08:34;34.54;15.00
43772;HTU21D;59066;54.782;32.024;2023-09-07T13:11:02;34.85;14.63
43772;HTU21D;59066;54.782;32.024;2023-09-07T13:13:30;35.18;14.29
43772;HTU21D;59066;54.782;32.024;2023-09-07T13:15:58;35.12;14.27
43772;HTU21D;59066;54.782;32.024;2023-09-07T13:18:26;35.28;14.18
43772;HTU21D;59066;54.782;32.024;2023-09-07T13:20:54;35.48;13.94
43772;HTU21D;59066;54.782;32.024;2023-09-07T13:23:27;35.53;13.91
43772;HTU21D;59066;54.782;32.024;2023-09-07T13:25:55;35.82;13.70
43772;HTU21D;59066;54.782;32.024;2023-09-07T13:28:27;36.12;13.33
43772;HTU21D;59066;54.782;32.024;2023-09-07T13:30:55;35.98;13.10
43772;HTU21D;59066;54.782;32.024;2023-09-07T13:33:22;35.71;13.04
43772;HTU21D;59066;54.782;32.024;2023-09-07T13:35:50;35.69;13.09
43772;HTU21D;59066;54.782;32.024;2023-09-07T13:38:17;35.87;12.98
43772;HTU21D;59066;54.782;32.024;2023-09-07T13:40:44;35.68;12.94
43772;HTU21D;59066;54.782;32.024;2023-09-07T13:43:12;35.60;13.00
43772;HTU21D;59066;54.782;32.024;2023-09-07T13:45:40;35.56;12.97
43772;HTU21D;59066;54.782;32.024;2023-09-07T13:48:07;35.81;12.85
43772;HTU21D;59066;54.782;32.024;2023-09-07T13:50:35;36.06;12.81
43772;HTU21D;59066;54.782;32.024;2023-09-07T13:53:02;35.79;13.07
43772;HTU21D;59066;54.782;32.024;2023-09-07T13:55:30;35.49;13.18
43772;HTU21D;59066;54.782;32.024;2023-09-07T13:57:57;35.10;13.49
43772;HTU21D;59066;54.782;32.024;2023-09-07T14:00:25;35.22;13.52
43772;HTU21D;59066;54.782;32.024;2023-09-07T14:02:53;35.10;13.48
43772;HTU21D;59066;54.782;32.024;2023-09-07T14:05:21;34.96;13.62
43772;HTU21D;59066;54.782;32.024;2023-09-07T14:07:48;34.73;13.99
43772;HTU21D;59066;54.782;32.024;2023-09-07T14:10:16;34.84;13.67
43772;HTU21D;59066;54.782;32.024;2023-09-07T14:12:43;34.42;13.73
43772;HTU21D;59066;54.782;32.024;2023-09-07T14:15:11;34.22;13.78
43772;HTU21D;59066;54.782;32.024;2023-09-07T14:17:39;33.87;13.91
43772;HTU21D;59066;54.782;32.024;2023-09-07T14:20:06;33.86;13.92
43772;HTU21D;59066;54.782;32.024;2023-09-07T14:22:34;33.56;14.20
43772;HTU21D;59066;54.782;32.024;2023-09-07T14:25:01;33.28;14.50
43772;HTU21D;59066;54.782;32.024;2023-09-07T14:27:29;33.13;14.71
43772;HTU21D;59066;54.782;32.024;2023-09-07T14:29:57;33.05;14.67
43772;HTU21D;59066;54.782;32.024;2023-09-07T14:32:24;32.42;15.45
43772;HTU21D;59066;54.782;32.024;2023-09-07T14:34:51;32.35;15.55
43772;HTU21D;59066;54.782;32.024;2023-09-07T14:37:19;32.27;15.59
43772;HTU21D;59066;54.782;32.024;2023-09-07T14:39:47;32.02;15.85
43772;HTU21D;59066;54.782;32.024;2023-09-07T14:42:17;31.67;16.38
43772;HTU21D;59066;54.782;32.024;2023-09-07T14:44:46;31.53;16.73
43772;HTU21D;59066;54.782;32.024;2023-09-07T14:47:14;31.36;16.90
43772;HTU21D;59066;54.782;32.024;2023-09-07T14:49:41;30.91;17.26
43772;HTU21D;59066;54.782;32.024;2023-09-07T14:52:09;30.79;17.28
43772;HTU21D;59066;54.782;32.024;2023-09-07T14:54:38;30.56;17.60
43772;HTU21D;59066;54.782;32.024;2023-09-07T14:57:07;30.48;17.89
43772;HTU21D;59066;54.782;32.024;2023-09-07T14:59:35;30.47;18.09
43772;HTU21D;59066;54.782;32.024;2023-09-07T15:02:02;30.24;18.00
43772;HTU21D;59066;54.782;32.024;2023-09-07T15:04:31;29.76;18.39
43772;HTU21D;59066;54.782;32.024;2023-09-07T15:06:58;29.75;18.35
43772;HTU21D;59066;54.782;32.024;2023-09-07T15:09:26;29.48;18.67
43772;HTU21D;59066;54.782;32.024;2023-09-07T15:11:54;29.05;18.93
43772;HTU21D;59066;54.782;32.024;2023-09-07T15:14:21;28.53;19.28